createdAt,value
2018-04-24T00:00:40.918Z,93.00
2018-04-24T00:03:09.195Z,93.00
2018-04-24T00:05:37.002Z,93.00
2018-04-24T00:08:04.653Z,93.10
2018-04-24T00:10:32.133Z,93.40
2018-04-24T00:12:59.606Z,93.50
2018-04-24T00:15:27.086Z,93.60
2018-04-24T00:17:54.825Z,93.60
2018-04-24T00:20:22.332Z,93.80
2018-04-24T00:22:50.575Z,93.80
2018-04-24T00:25:18.790Z,93.80
2018-04-24T00:27:47.016Z,94.00
2018-04-24T00:30:14.479Z,94.00
2018-04-24T00:32:41.987Z,93.90
2018-04-24T00:35:13.458Z,94.10
2018-04-24T00:37:41.911Z,94.20
2018-04-24T00:40:09.387Z,94.20
2018-04-24T00:42:37.538Z,94.40
2018-04-24T00:45:05.972Z,94.70
2018-04-24T00:47:34.480Z,94.60
2018-04-24T00:50:02.058Z,94.80
2018-04-24T00:52:30.406Z,95.00
2018-04-24T00:54:58.000Z,95.00
2018-04-24T00:57:26.279Z,95.10
2018-04-24T00:59:54.511Z,95.70
2018-04-24T01:02:22.039Z,95.70
2018-04-24T01:04:49.507Z,95.80
2018-04-24T01:07:16.979Z,95.90
2018-04-24T01:09:44.483Z,96.10
2018-04-24T01:12:12.745Z,96.30
2018-04-24T01:14:40.231Z,96.30
2018-04-24T01:17:07.715Z,96.60
2018-04-24T01:19:35.224Z,96.50
2018-04-24T01:22:02.703Z,96.90
2018-04-24T01:24:30.953Z,96.60
2018-04-24T01:26:58.433Z,96.60
2018-04-24T01:29:26.756Z,96.70
2018-04-24T01:31:54.264Z,96.70
2018-04-24T01:34:22.515Z,97.00
2018-04-24T01:36:50.290Z,96.90
2018-04-24T01:39:17.828Z,96.90
2018-04-24T01:41:45.294Z,96.90
2018-04-24T01:44:12.822Z,96.80
2018-04-24T01:46:40.291Z,96.90
2018-04-24T01:49:07.811Z,96.90
2018-04-24T01:51:36.040Z,96.90
2018-04-24T01:54:03.519Z,97.00
2018-04-24T01:56:30.999Z,96.90
2018-04-24T01:58:59.419Z,96.90
2018-04-24T02:01:26.927Z,96.90
2018-04-24T02:03:55.158Z,97.10
2018-04-24T02:06:22.646Z,97.00
2018-04-24T02:08:50.150Z,97.20
2018-04-24T02:11:17.646Z,97.40
2018-04-24T02:13:45.146Z,97.50
2018-04-24T02:16:13.387Z,97.50
2018-04-24T02:18:40.878Z,97.50
2018-04-24T02:21:09.197Z,97.70
2018-04-24T02:23:36.702Z,97.70
2018-04-24T02:26:04.187Z,97.90
2018-04-24T02:28:31.686Z,98.00
2018-04-24T02:30:59.435Z,98.00
2018-04-24T02:33:26.937Z,98.10
2018-04-24T02:35:54.411Z,98.30
2018-04-24T02:38:22.657Z,98.50
2018-04-24T02:40:50.140Z,98.50
2018-04-24T02:43:17.627Z,98.80
2018-04-24T02:45:45.160Z,98.90
2018-04-24T02:48:12.633Z,98.80
2018-04-24T02:50:40.892Z,98.20
2018-04-24T02:53:08.347Z,98.20
2018-04-24T02:55:36.594Z,97.70
2018-04-24T02:58:04.096Z,97.60
2018-04-24T03:00:32.332Z,97.60
2018-04-24T03:02:59.811Z,97.60
2018-04-24T03:05:27.286Z,97.40
2018-04-24T03:07:55.548Z,97.10
2018-04-24T03:10:23.012Z,97.10
2018-04-24T03:12:50.504Z,97.00
2018-04-24T03:15:18.008Z,96.90
2018-04-24T03:17:45.515Z,96.80
2018-04-24T03:20:13.011Z,96.10
2018-04-24T03:22:40.515Z,96.70
2018-04-24T03:25:08.830Z,96.80
2018-04-24T03:27:36.335Z,96.80
2018-04-24T03:30:03.866Z,96.40
2018-04-24T03:32:31.353Z,97.00
2018-04-24T03:34:58.845Z,97.00
2018-04-24T03:37:26.351Z,96.50
2018-04-24T03:39:53.854Z,97.20
2018-04-24T03:42:22.077Z,97.60
2018-04-24T03:44:49.562Z,97.70
2018-04-24T03:47:17.077Z,97.80
2018-04-24T03:49:44.574Z,98.00
2018-04-24T03:52:12.074Z,98.10
2018-04-24T03:54:39.574Z,98.20
2018-04-24T03:57:07.089Z,98.30
2018-04-24T03:59:34.575Z,98.00
2018-04-24T04:02:02.230Z,98.00
2018-04-24T04:04:29.695Z,97.80
2018-04-24T04:06:57.202Z,97.80
2018-04-24T04:09:25.453Z,97.70
2018-04-24T04:11:52.919Z,97.70
2018-04-24T04:14:20.511Z,97.80
2018-04-24T04:16:48.007Z,97.80
2018-04-24T04:19:27.554Z,97.90
2018-04-24T04:22:07.024Z,97.90
2018-04-24T04:24:52.149Z,97.80
2018-04-24T04:27:19.799Z,97.70
2018-04-24T04:29:47.430Z,97.80
2018-04-24T04:32:16.829Z,97.70
2018-04-24T04:34:44.283Z,97.60
2018-04-24T04:37:12.554Z,97.70
2018-04-24T04:39:40.715Z,97.60
2018-04-24T04:42:08.276Z,97.50
2018-04-24T04:44:35.734Z,97.40
2018-04-24T04:47:03.213Z,97.40
2018-04-24T04:49:31.504Z,97.30
2018-04-24T04:51:59.743Z,97.30
2018-04-24T04:54:27.202Z,97.30
2018-04-24T04:56:54.786Z,96.50
2018-04-24T04:59:22.259Z,96.30
2018-04-24T05:01:49.770Z,95.90
2018-04-24T05:04:17.271Z,95.60
2018-04-24T05:06:45.592Z,94.80
2018-04-24T05:09:13.171Z,94.80
2018-04-24T05:11:40.685Z,94.90
2018-04-24T05:14:08.213Z,95.30
2018-04-24T05:16:35.694Z,95.50
2018-04-24T05:19:03.204Z,95.60
2018-04-24T05:21:31.422Z,95.60
2018-04-24T05:23:59.726Z,95.60
2018-04-24T05:26:27.241Z,95.50
2018-04-24T05:28:54.754Z,95.50
2018-04-24T05:31:22.245Z,95.50
2018-04-24T05:33:49.846Z,95.30
2018-04-24T05:36:17.349Z,95.30
2018-04-24T05:38:44.953Z,95.20
2018-04-24T05:41:13.196Z,95.00
2018-04-24T05:43:40.683Z,94.90
2018-04-24T05:46:08.982Z,94.60
2018-04-24T05:48:37.427Z,94.60
2018-04-24T05:51:04.922Z,94.50
2018-04-24T05:53:32.414Z,94.60
2018-04-24T05:55:59.929Z,94.30
2018-04-24T05:58:27.491Z,94.40
2018-04-24T06:00:55.024Z,94.40
2018-04-24T06:03:22.521Z,94.10
2018-04-24T06:05:50.033Z,94.30
2018-04-24T06:08:17.716Z,94.30
2018-04-24T06:10:46.074Z,94.70
2018-04-24T06:13:13.562Z,94.40
2018-04-24T06:15:41.822Z,94.80
2018-04-24T06:18:09.358Z,94.70
2018-04-24T06:20:36.877Z,95.90
2018-04-24T06:23:04.443Z,95.90
2018-04-24T06:25:31.890Z,95.90
2018-04-24T06:27:59.465Z,96.10
2018-04-24T06:30:26.948Z,96.40
2018-04-24T06:32:54.436Z,96.40
2018-04-24T06:35:21.942Z,97.00
2018-04-24T06:37:49.430Z,97.30
2018-04-24T06:40:16.930Z,96.90
2018-04-24T06:42:44.434Z,96.70
2018-04-24T06:45:12.525Z,96.20
2018-04-24T06:47:40.098Z,96.50
2018-04-24T06:50:07.539Z,96.30
2018-04-24T06:52:35.032Z,95.80
2018-04-24T06:55:03.323Z,95.30
2018-04-24T06:57:30.746Z,95.30
2018-04-24T06:59:58.264Z,95.40
2018-04-24T07:02:26.076Z,95.20
2018-04-24T07:04:53.668Z,95.00
2018-04-24T07:07:21.162Z,94.90
2018-04-24T07:09:48.834Z,94.70
2018-04-24T07:12:20.959Z,94.60
2018-04-24T07:14:48.472Z,94.50
2018-04-24T07:17:16.006Z,93.90
2018-04-24T07:19:43.488Z,93.90
2018-04-24T07:22:11.013Z,94.00
2018-04-24T07:24:38.594Z,94.00
2018-04-24T07:27:06.106Z,93.80
2018-04-24T07:29:33.573Z,94.10
2018-04-24T07:32:01.079Z,94.40
2018-04-24T07:34:28.624Z,95.60
2018-04-24T07:36:56.100Z,95.60
2018-04-24T07:39:23.615Z,96.10
2018-04-24T07:41:51.091Z,97.50
2018-04-24T07:44:18.641Z,97.70
2018-04-24T07:46:46.155Z,98.10
2018-04-24T07:49:13.598Z,98.20
2018-04-24T07:51:41.090Z,98.50
2018-04-24T07:54:08.701Z,99.10
2018-04-24T07:56:36.293Z,99.00
2018-04-24T07:59:03.970Z,99.40
2018-04-24T08:01:32.224Z,99.50
2018-04-24T08:03:59.721Z,99.50
2018-04-24T08:06:27.265Z,99.10
2018-04-24T08:08:55.503Z,98.70
2018-04-24T08:11:23.048Z,98.70
2018-04-24T08:13:51.308Z,98.90
2018-04-24T08:16:18.778Z,98.80
2018-04-24T08:18:46.304Z,98.90
2018-04-24T08:21:13.876Z,98.70
2018-04-24T08:23:41.383Z,98.60
2018-04-24T08:26:08.888Z,99.00
2018-04-24T08:28:36.379Z,98.40
2018-04-24T08:31:03.883Z,98.50
2018-04-24T08:33:32.158Z,98.50
2018-04-24T08:36:00.415Z,98.30
2018-04-24T08:38:27.914Z,98.30
2018-04-24T08:40:55.420Z,98.00
2018-04-24T08:43:22.958Z,98.00
2018-04-24T08:45:50.430Z,97.90
2018-04-24T08:48:17.926Z,97.80
2018-04-24T08:50:45.618Z,97.70
2018-04-24T08:53:13.127Z,97.20
2018-04-24T08:55:40.641Z,97.00
2018-04-24T08:58:08.126Z,97.10
2018-04-24T09:00:35.626Z,97.10
2018-04-24T09:03:03.896Z,96.50
2018-04-24T09:05:31.353Z,96.50
2018-04-24T09:07:59.586Z,96.50
2018-04-24T09:10:27.059Z,96.50
2018-04-24T09:12:54.555Z,96.20
2018-04-24T09:15:22.824Z,95.90
2018-04-24T09:17:51.094Z,95.90
2018-04-24T09:20:18.734Z,95.80
2018-04-24T09:22:46.215Z,95.80
2018-04-24T09:25:14.461Z,94.90
2018-04-24T09:27:41.923Z,94.90
2018-04-24T09:30:09.426Z,94.60
2018-04-24T09:32:36.922Z,94.20
2018-04-24T09:35:04.439Z,93.80
2018-04-24T09:37:32.672Z,93.40
2018-04-24T09:40:00.168Z,93.40
2018-04-24T09:42:28.582Z,92.90
2018-04-24T09:44:56.147Z,92.90
2018-04-24T09:47:23.907Z,92.60
2018-04-24T09:49:51.413Z,92.60
2018-04-24T09:52:19.125Z,92.20
2018-04-24T09:54:46.596Z,92.10
2018-04-24T09:57:14.105Z,91.40
2018-04-24T09:59:42.359Z,91.40
2018-04-24T10:02:09.867Z,91.30
2018-04-24T10:04:37.334Z,91.70
2018-04-24T10:07:04.855Z,92.20
2018-04-24T10:09:32.314Z,92.40
2018-04-24T10:12:00.572Z,91.60
2018-04-24T10:14:28.698Z,91.60
2018-04-24T10:16:56.243Z,91.70
2018-04-24T10:19:24.473Z,91.90
2018-04-24T10:21:51.959Z,91.80
2018-04-24T10:24:20.200Z,91.40
2018-04-24T10:26:47.666Z,91.30
2018-04-24T10:29:15.165Z,91.40
2018-04-24T10:31:42.668Z,91.20
2018-04-24T10:34:10.192Z,91.40
2018-04-24T10:36:37.679Z,91.40
2018-04-24T10:39:06.112Z,92.10
2018-04-24T10:41:34.350Z,92.60
2018-04-24T10:44:01.861Z,92.60
2018-04-24T10:46:29.345Z,92.90
2018-04-24T10:48:56.846Z,93.00
2018-04-24T10:51:24.374Z,93.10
2018-04-24T10:53:51.871Z,93.20
2018-04-24T10:56:20.116Z,93.10
2018-04-24T10:58:47.633Z,93.10
2018-04-24T11:01:15.132Z,93.40
2018-04-24T11:03:42.631Z,93.30
2018-04-24T11:06:10.903Z,93.10
2018-04-24T11:08:39.184Z,93.10
2018-04-24T11:11:07.751Z,93.10
2018-04-24T11:13:35.257Z,93.10
2018-04-24T11:16:02.786Z,92.90
2018-04-24T11:18:31.039Z,92.90
2018-04-24T11:20:58.567Z,92.80
2018-04-24T11:23:26.029Z,92.10
2018-04-24T11:25:53.515Z,91.80
2018-04-24T11:28:21.016Z,91.10
2018-04-24T11:30:48.525Z,91.00
2018-04-24T11:33:16.028Z,91.00
2018-04-24T11:35:44.284Z,91.20
2018-04-24T11:38:11.763Z,91.20
2018-04-24T11:40:39.326Z,91.40
2018-04-24T11:43:06.844Z,91.40
2018-04-24T11:45:34.315Z,91.20
2018-04-24T11:48:01.788Z,91.20
2018-04-24T11:50:30.023Z,90.50
2018-04-24T11:52:57.523Z,90.50
2018-04-24T11:55:25.840Z,89.70
2018-04-24T11:57:53.327Z,89.60
2018-04-24T12:00:20.850Z,90.00
2018-04-24T12:02:48.436Z,89.70
2018-04-24T12:05:15.846Z,88.60
2018-04-24T12:07:43.367Z,87.90
2018-04-24T12:10:10.844Z,88.40
2018-04-24T12:12:39.099Z,89.00
2018-04-24T12:15:06.823Z,88.80
2018-04-24T12:17:34.314Z,90.20
2018-04-24T12:20:01.832Z,90.50
2018-04-24T12:22:29.337Z,90.50
2018-04-24T12:24:56.822Z,90.70
2018-04-24T12:27:25.174Z,91.20
2018-04-24T12:29:52.742Z,91.20
2018-04-24T12:32:20.308Z,91.70
2018-04-24T12:34:47.850Z,91.90
2018-04-24T12:37:15.363Z,91.80
2018-04-24T12:39:42.876Z,91.70
2018-04-24T12:42:10.363Z,91.60
2018-04-24T12:44:38.627Z,91.40
2018-04-24T12:47:06.914Z,91.70
2018-04-24T12:49:35.224Z,91.80
2018-04-24T12:52:02.781Z,91.80
2018-04-24T12:54:30.852Z,91.80
2018-04-24T12:56:58.419Z,92.00
2018-04-24T12:59:25.961Z,92.30
2018-04-24T13:01:53.471Z,92.30
2018-04-24T13:04:20.978Z,92.60
2018-04-24T13:06:48.484Z,91.60
2018-04-24T13:09:15.991Z,91.10
2018-04-24T13:11:43.504Z,90.70
2018-04-24T13:14:11.003Z,90.40
2018-04-24T13:16:39.366Z,90.10
2018-04-24T13:19:07.704Z,89.90
2018-04-24T13:21:35.176Z,89.90
2018-04-24T13:24:02.659Z,90.30
2018-04-24T13:26:30.903Z,90.40
2018-04-24T13:28:59.222Z,90.70
2018-04-24T13:31:27.504Z,91.10
2018-04-24T13:33:55.763Z,91.40
2018-04-24T13:36:23.297Z,91.40
2018-04-24T13:38:50.813Z,91.50
2018-04-24T13:41:18.320Z,91.60
2018-04-24T13:43:45.785Z,91.60
2018-04-24T13:46:13.283Z,91.40
2018-04-24T13:48:40.835Z,91.10
2018-04-24T13:51:09.087Z,90.80
2018-04-24T13:53:36.705Z,90.80
2018-04-24T13:56:04.214Z,90.50
2018-04-24T13:58:31.706Z,90.70
2018-04-24T14:00:59.239Z,91.00
2018-04-24T14:03:26.906Z,90.70
2018-04-24T14:05:55.191Z,90.50
2018-04-24T14:08:23.591Z,90.40
2018-04-24T14:10:51.092Z,90.30
2018-04-24T14:13:18.595Z,90.60
2018-04-24T14:15:46.128Z,90.40
2018-04-24T14:18:13.633Z,90.60
2018-04-24T14:20:41.122Z,90.60
2018-04-24T14:23:08.641Z,90.60
2018-04-24T14:25:36.107Z,90.50
2018-04-24T14:28:03.608Z,90.50
2018-04-24T14:30:31.137Z,90.60
2018-04-24T14:32:58.712Z,91.10
2018-04-24T14:35:26.179Z,91.20
2018-04-24T14:37:53.730Z,91.60
2018-04-24T14:40:21.247Z,91.60
2018-04-24T14:42:48.844Z,91.90
2018-04-24T14:45:16.249Z,91.90
2018-04-24T14:47:44.505Z,92.10
2018-04-24T14:50:11.996Z,92.10
2018-04-24T14:52:39.498Z,92.10
2018-04-24T14:55:07.030Z,92.20
2018-04-24T14:57:34.541Z,92.10
2018-04-24T15:00:02.050Z,91.90
2018-04-24T15:02:29.566Z,92.00
2018-04-24T15:04:57.889Z,92.20
2018-04-24T15:07:25.430Z,92.20
2018-04-24T15:09:52.959Z,92.40
2018-04-24T15:12:20.443Z,92.20
2018-04-24T15:14:47.949Z,92.30
2018-04-24T15:17:15.457Z,92.10
2018-04-24T15:19:43.703Z,92.00
2018-04-24T15:22:11.398Z,92.00
2018-04-24T15:24:39.739Z,91.90
2018-04-24T15:27:24.988Z,91.90
2018-04-24T15:29:52.877Z,91.50
2018-04-24T15:32:21.091Z,91.60
2018-04-24T15:34:48.639Z,91.50
2018-04-24T15:37:17.004Z,91.70
2018-04-24T15:39:44.617Z,91.70
2018-04-24T15:42:12.098Z,91.80
2018-04-24T15:44:39.607Z,91.80
2018-04-24T15:47:07.329Z,91.80
2018-04-24T15:49:35.034Z,91.70
2018-04-24T15:52:02.598Z,91.70
2018-04-24T15:54:30.106Z,91.80
2018-04-24T15:56:57.606Z,92.10
2018-04-24T15:59:25.123Z,92.10
2018-04-24T16:01:52.623Z,91.80
2018-04-24T16:04:21.530Z,92.00
2018-04-24T16:06:49.091Z,92.00
2018-04-24T16:09:16.741Z,92.10
2018-04-24T16:11:44.458Z,92.20
2018-04-24T16:14:12.581Z,92.00
2018-04-24T16:16:40.204Z,92.20
2018-04-24T16:19:07.792Z,92.10
2018-04-24T16:21:35.313Z,92.00
2018-04-24T16:24:03.623Z,92.00
2018-04-24T16:26:31.060Z,91.90
2018-04-24T16:28:58.692Z,91.80
2018-04-24T16:31:26.223Z,91.60
2018-04-24T16:33:53.740Z,91.40
2018-04-24T16:36:21.271Z,91.40
2018-04-24T16:38:48.900Z,91.30
2018-04-24T16:41:16.486Z,91.50
2018-04-24T16:43:44.317Z,91.60
2018-04-24T16:46:12.661Z,91.70
2018-04-24T16:48:40.143Z,91.60
2018-04-24T16:51:08.939Z,91.80
2018-04-24T16:53:37.268Z,91.80
2018-04-24T16:56:04.997Z,91.80
2018-04-24T16:58:32.589Z,91.80
2018-04-24T17:01:00.139Z,91.90
2018-04-24T17:03:27.756Z,91.80
2018-04-24T17:05:56.051Z,92.10
2018-04-24T17:08:23.822Z,92.10
2018-04-24T17:10:52.169Z,92.20
2018-04-24T17:13:19.994Z,92.20
2018-04-24T17:15:47.540Z,92.60
2018-04-24T17:18:15.135Z,92.30
2018-04-24T17:20:42.642Z,92.40
2018-04-24T17:23:10.883Z,92.40
2018-04-24T17:25:38.392Z,92.60
2018-04-24T17:28:06.702Z,92.60
2018-04-24T17:30:34.211Z,92.60
2018-04-24T17:33:01.723Z,92.60
2018-04-24T17:35:29.243Z,92.60
2018-04-24T17:37:56.719Z,92.70
2018-04-24T17:40:24.436Z,92.60
2018-04-24T17:42:52.020Z,92.50
2018-04-24T17:45:19.495Z,92.50
2018-04-24T17:47:47.002Z,92.90
2018-04-24T17:50:14.516Z,92.50
2018-04-24T17:52:42.021Z,92.50
2018-04-24T17:55:09.531Z,92.40
2018-04-24T17:57:37.040Z,92.50
2018-04-24T18:00:04.556Z,92.50
2018-04-24T18:02:32.088Z,92.70
2018-04-24T18:04:59.586Z,92.80
2018-04-24T18:07:27.077Z,92.80
2018-04-24T18:09:54.702Z,92.90
2018-04-24T18:12:22.222Z,92.90
2018-04-24T18:14:49.735Z,93.00
2018-04-24T18:17:17.256Z,93.20
2018-04-24T18:19:44.836Z,93.20
2018-04-24T18:22:13.157Z,93.50
2018-04-24T18:24:40.695Z,93.50
2018-04-24T18:27:08.313Z,93.70
2018-04-24T18:29:35.995Z,93.60
2018-04-24T18:32:03.659Z,93.80
2018-04-24T18:34:31.157Z,93.70
2018-04-24T18:36:58.835Z,93.70
2018-04-24T18:39:26.406Z,93.80
2018-04-24T18:41:53.923Z,93.80
2018-04-24T18:44:21.524Z,93.70
2018-04-24T18:46:49.042Z,93.80
2018-04-24T18:49:16.521Z,94.00
2018-04-24T18:51:44.828Z,94.10
2018-04-24T18:54:12.375Z,94.10
2018-04-24T18:56:40.648Z,94.10
2018-04-24T18:59:08.924Z,94.20
2018-04-24T19:01:37.170Z,94.30
2018-04-24T19:04:04.842Z,94.30
2018-04-24T19:06:32.354Z,94.30
2018-04-24T19:08:59.834Z,94.30
2018-04-24T19:11:27.366Z,94.30
2018-04-24T19:13:54.863Z,94.50
2018-04-24T19:16:22.380Z,94.40
2018-04-24T19:18:55.639Z,94.70
2018-04-24T19:21:23.950Z,94.70
2018-04-24T19:23:51.475Z,94.60
2018-04-24T19:26:19.716Z,94.70
2018-04-24T19:28:47.215Z,94.70
2018-04-24T19:31:21.410Z,94.80
2018-04-24T19:33:48.927Z,94.80
2018-04-24T19:36:16.438Z,94.80
2018-04-24T19:38:49.532Z,94.80
2018-04-24T19:41:22.593Z,94.70
2018-04-24T19:43:50.134Z,94.80
2018-04-24T19:46:17.650Z,94.80
2018-04-24T19:48:51.532Z,95.00
2018-04-24T19:51:19.074Z,94.90
2018-04-24T19:53:46.563Z,95.10
2018-04-24T19:56:14.096Z,95.10
2018-04-24T19:58:41.700Z,95.30
2018-04-24T20:01:09.154Z,95.20
2018-04-24T20:03:36.649Z,95.20
2018-04-24T20:06:04.177Z,95.30
2018-04-24T20:08:31.750Z,95.20
2018-04-24T20:10:59.233Z,95.30
2018-04-24T20:13:26.750Z,95.30
2018-04-24T20:15:54.314Z,95.20
2018-04-24T20:18:22.034Z,95.40
2018-04-24T20:20:49.468Z,95.30
2018-04-24T20:23:17.004Z,95.40
2018-04-24T20:25:44.488Z,95.60
2018-04-24T20:28:11.991Z,95.80
2018-04-24T20:30:40.284Z,95.70
2018-04-24T20:33:08.577Z,95.80
2018-04-24T20:35:36.216Z,95.70
2018-04-24T20:38:03.793Z,95.80
2018-04-24T20:40:32.283Z,96.00
2018-04-24T20:42:59.789Z,96.40
2018-04-24T20:45:27.280Z,96.50
2018-04-24T20:47:55.001Z,96.80
2018-04-24T20:50:22.499Z,97.60
2018-04-24T20:52:50.747Z,97.00
2018-04-24T20:55:18.242Z,97.00
2018-04-24T20:57:46.541Z,97.60
2018-04-24T21:00:14.052Z,97.60
2018-04-24T21:02:41.625Z,97.20
2018-04-24T21:05:10.133Z,97.60
2018-04-24T21:07:37.720Z,97.50
2018-04-24T21:10:05.341Z,97.50
2018-04-24T21:12:33.651Z,97.30
2018-04-24T21:15:01.260Z,97.30
2018-04-24T21:17:28.818Z,97.30
2018-04-24T21:19:57.092Z,97.80
2018-04-24T21:22:24.705Z,97.80
2018-04-24T21:24:52.191Z,97.80
2018-04-24T21:27:20.480Z,98.00
2018-04-24T21:29:48.192Z,98.00
2018-04-24T21:32:15.774Z,98.00
2018-04-24T21:34:44.217Z,98.40
2018-04-24T21:37:12.781Z,98.40
2018-04-24T21:39:40.418Z,98.40
2018-04-24T21:42:08.769Z,98.20
2018-04-24T21:44:36.325Z,98.20
2018-04-24T21:47:04.518Z,98.30
2018-04-24T21:49:33.484Z,98.20
2018-04-24T21:52:01.307Z,98.10
2018-04-24T21:54:29.463Z,98.20
2018-04-24T21:56:57.013Z,98.10
2018-04-24T21:59:24.594Z,98.20
2018-04-24T22:01:53.277Z,98.20
2018-04-24T22:04:20.945Z,98.00
2018-04-24T22:06:48.507Z,98.00
2018-04-24T22:09:16.100Z,98.20
2018-04-24T22:11:44.543Z,98.10
2018-04-24T22:14:12.146Z,98.10
2018-04-24T22:16:40.586Z,98.40
2018-04-24T22:19:08.211Z,98.30
2018-04-24T22:21:35.780Z,98.30
2018-04-24T22:24:04.707Z,98.40
2018-04-24T22:26:32.408Z,98.50
2018-04-24T22:29:00.790Z,98.60
2018-04-24T22:31:29.267Z,98.50
2018-04-24T22:33:57.545Z,98.60
2018-04-24T22:36:25.207Z,98.60
2018-04-24T22:38:53.218Z,98.80
2018-04-24T22:41:20.898Z,99.10
2018-04-24T22:43:49.175Z,99.50
2018-04-24T22:46:17.602Z,99.50
2018-04-24T22:48:45.205Z,99.40
2018-04-24T22:51:12.784Z,99.70
2018-04-24T22:53:40.564Z,99.50
2018-04-24T22:56:08.356Z,99.50
2018-04-24T22:58:36.012Z,99.50
2018-04-24T23:01:03.510Z,99.50
2018-04-24T23:03:31.097Z,99.80
2018-04-24T23:05:58.731Z,99.50
2018-04-24T23:08:26.393Z,99.70
2018-04-24T23:11:05.973Z,99.50
2018-04-24T23:13:46.628Z,99.30
2018-04-24T23:16:26.355Z,99.40
2018-04-24T23:19:06.586Z,99.50
2018-04-24T23:21:33.588Z,99.50
2018-04-24T23:24:02.518Z,99.30
2018-04-24T23:26:30.519Z,99.30
2018-04-24T23:28:58.043Z,99.40
2018-04-24T23:31:25.615Z,99.50
2018-04-24T23:33:53.179Z,99.40
2018-04-24T23:36:21.537Z,99.50
2018-04-24T23:38:49.244Z,99.60
2018-04-24T23:41:17.505Z,99.60
2018-04-24T23:43:45.018Z,99.70
2018-04-24T23:46:18.023Z,99.70
2018-04-24T23:48:45.526Z,99.80
2018-04-24T23:51:13.028Z,99.60
2018-04-24T23:53:41.286Z,99.70
2018-04-24T23:56:08.863Z,99.70
2018-04-24T23:58:37.086Z,99.60
